San Saba — WDH2719 — position and weather

sailwx.info

Track history (hours):
 
Tides and Currents Weather Stations Pressure Air Temp Water Temp Dewpoint Dewpoint Depression Visibility Wind Speed Wind Dir Waves Ship Positions

San Saba

Owner: Higman Barge Lines, Inc, Orange, TX. More information available from US FCC via Universal Licensing System and Coast Guard Vessel Documentation Center.

Last reported at 2017-Sep-24 13:23 UTC. Time now 2017-Sep-24 15:50 UTC.
Position N 29°46' W 095°05'.

; draft 3 m.

Type: Towing. MMSI: 367600490.

Date/timePositionNaut miles runAvg speedWind from/ knotsBaromVisibWave heightAir tempDewpointWater temp
2017-Sep-24 13:23N 29°46' W 095°05'0 0.0
2017-Sep-24 12:54N 29°46' W 095°05'0 0.0
2017-Sep-24 12:05N 29°46' W 095°05'0 0.0
2017-Sep-24 11:50N 29°46' W 095°05'0 0.0
2017-Sep-24 10:52N 29°46' W 095°05'0 0.0
2017-Sep-24 04:58N 29°46' W 095°05'0 0.0
2017-Sep-24 04:25N 29°46' W 095°05'0 0.0
2017-Sep-24 04:00N 29°46' W 095°05'0 0.0
2017-Sep-24 03:20N 29°46' W 095°05'0 0.0
2017-Sep-24 02:50N 29°46' W 095°05'0 0.0
2017-Sep-24 02:26N 29°46' W 095°05'0 0.0
2017-Sep-24 02:01N 29°46' W 095°05'0 0.0
2017-Sep-24 01:30N 29°46' W 095°05'0 0.0
2017-Sep-24 01:01N 29°46' W 095°05'0 0.0
2017-Sep-24 00:31N 29°46' W 095°05'0 0.0
2017-Sep-23 23:45N 29°46' W 095°05'0 0.0
2017-Sep-23 23:27N 29°46' W 095°05'1 1.8
2017-Sep-23 23:01N 29°46' W 095°05'2 2.9
2017-Sep-23 22:27N 29°45' W 095°07'1 2.4
2017-Sep-23 22:01N 29°46' W 095°06'0 0.2
2017-Sep-23 21:29N 29°46' W 095°06'  
2017-Sep-17 03:12N 29°23' W 094°52'0 0.0
2017-Sep-17 02:57N 29°23' W 094°52'0 0.0
2017-Sep-17 02:31N 29°23' W 094°52'0 0.0
2017-Sep-16 07:04N 29°23' W 094°52'0 0.0
2017-Sep-16 07:00N 29°23' W 094°52'0 0.0
2017-Sep-16 06:30N 29°23' W 094°52'0 0.0
2017-Sep-16 05:58N 29°23' W 094°52'4 0.7
2017-Sep-15 23:51N 29°26' W 094°50'3 8.5
2017-Sep-15 23:28N 29°29' W 094°52'4 8.3
2017-Sep-15 23:01N 29°33' W 094°54'4 7.7
2017-Sep-15 22:31N 29°36' W 094°57'4 7.2
2017-Sep-15 21:58N 29°39' W 094°58'3 6.7
2017-Sep-15 21:30N 29°42' W 095°00'4 7.2
2017-Sep-15 20:59N 29°44' W 095°04'3 2.3
2017-Sep-15 19:45N 29°46' W 095°06'1 4.1
2017-Sep-15 19:30N 29°45' W 095°06'0 0.1
2017-Sep-15 19:00N 29°45' W 095°06'0 0.0
2017-Sep-15 17:54N 29°45' W 095°07'0 0.0
2017-Sep-15 17:26N 29°45' W 095°07'0 0.0
2017-Sep-15 16:57N 29°45' W 095°07'1 0.1
2017-Sep-15 03:33N 29°46' W 095°07'0 0.1
2017-Sep-15 03:28N 29°46' W 095°07'1 1.8
2017-Sep-15 03:00N 29°45' W 095°06'3 4.6
2017-Sep-15 02:16N 29°44' W 095°09'0 1.6
2017-Sep-15 02:00N 29°44' W 095°10'0 0.0
2017-Sep-15 01:30N 29°44' W 095°10'0 0.0
2017-Sep-15 01:01N 29°44' W 095°10'0 0.0
2017-Sep-15 00:31N 29°44' W 095°10'0 0.0
2017-Sep-15 00:01N 29°44' W 095°10'0 0.0
2017-Sep-14 19:12N 29°44' W 095°10'0 0.0
2017-Sep-14 18:51N 29°44' W 095°10'0 0.0
2017-Sep-14 18:27N 29°44' W 095°10'0 0.0
2017-Sep-14 17:59N 29°44' W 095°10'0 0.0
2017-Sep-14 17:30N 29°44' W 095°10'0 0.0
2017-Sep-14 17:00N 29°44' W 095°10'0 0.0
2017-Sep-14 16:30N 29°44' W 095°10'  
Track history (hours):
 
Tides and Currents Weather Stations Pressure Air Temp Water Temp Dewpoint Dewpoint Depression Visibility Wind Speed Wind Dir Waves Ship Positions

San Saba

Owner: Higman Barge Lines, Inc, Orange, TX. More information available from US FCC via Universal Licensing System and Coast Guard Vessel Documentation Center.

Last reported at 2017-Sep-24 13:23 UTC. Time now 2017-Sep-24 15:50 UTC.
Position N 29°46' W 095°05'.

; draft 3 m.

Type: Towing. MMSI: 367600490.

Date/timePositionNaut miles runAvg speedWind from/ knotsBaromVisibWave heightAir tempDewpointWater temp
2017-Sep-24 13:23N 29°46' W 095°05'0 0.0
2017-Sep-24 12:54N 29°46' W 095°05'0 0.0
2017-Sep-24 12:05N 29°46' W 095°05'0 0.0
2017-Sep-24 11:50N 29°46' W 095°05'0 0.0
2017-Sep-24 10:52N 29°46' W 095°05'0 0.0
2017-Sep-24 04:58N 29°46' W 095°05'0 0.0
2017-Sep-24 04:25N 29°46' W 095°05'0 0.0
2017-Sep-24 04:00N 29°46' W 095°05'0 0.0
2017-Sep-24 03:20N 29°46' W 095°05'0 0.0
2017-Sep-24 02:50N 29°46' W 095°05'0 0.0
2017-Sep-24 02:26N 29°46' W 095°05'0 0.0
2017-Sep-24 02:01N 29°46' W 095°05'0 0.0
2017-Sep-24 01:30N 29°46' W 095°05'0 0.0
2017-Sep-24 01:01N 29°46' W 095°05'0 0.0
2017-Sep-24 00:31N 29°46' W 095°05'0 0.0
2017-Sep-23 23:45N 29°46' W 095°05'0 0.0
2017-Sep-23 23:27N 29°46' W 095°05'1 1.8
2017-Sep-23 23:01N 29°46' W 095°05'2 2.9
2017-Sep-23 22:27N 29°45' W 095°07'1 2.4
2017-Sep-23 22:01N 29°46' W 095°06'0 0.2
2017-Sep-23 21:29N 29°46' W 095°06'  
2017-Sep-17 03:12N 29°23' W 094°52'0 0.0
2017-Sep-17 02:57N 29°23' W 094°52'0 0.0
2017-Sep-17 02:31N 29°23' W 094°52'0 0.0
2017-Sep-16 07:04N 29°23' W 094°52'0 0.0
2017-Sep-16 07:00N 29°23' W 094°52'0 0.0
2017-Sep-16 06:30N 29°23' W 094°52'0 0.0
2017-Sep-16 05:58N 29°23' W 094°52'4 0.7
2017-Sep-15 23:51N 29°26' W 094°50'3 8.5
2017-Sep-15 23:28N 29°29' W 094°52'4 8.3
2017-Sep-15 23:01N 29°33' W 094°54'4 7.7
2017-Sep-15 22:31N 29°36' W 094°57'4 7.2
2017-Sep-15 21:58N 29°39' W 094°58'3 6.7
2017-Sep-15 21:30N 29°42' W 095°00'4 7.2
2017-Sep-15 20:59N 29°44' W 095°04'3 2.3
2017-Sep-15 19:45N 29°46' W 095°06'1 4.1
2017-Sep-15 19:30N 29°45' W 095°06'0 0.1
2017-Sep-15 19:00N 29°45' W 095°06'0 0.0
2017-Sep-15 17:54N 29°45' W 095°07'0 0.0
2017-Sep-15 17:26N 29°45' W 095°07'0 0.0
2017-Sep-15 16:57N 29°45' W 095°07'1 0.1
2017-Sep-15 03:33N 29°46' W 095°07'0 0.1
2017-Sep-15 03:28N 29°46' W 095°07'1 1.8
2017-Sep-15 03:00N 29°45' W 095°06'3 4.6
2017-Sep-15 02:16N 29°44' W 095°09'0 1.6
2017-Sep-15 02:00N 29°44' W 095°10'0 0.0
2017-Sep-15 01:30N 29°44' W 095°10'0 0.0
2017-Sep-15 01:01N 29°44' W 095°10'0 0.0
2017-Sep-15 00:31N 29°44' W 095°10'0 0.0
2017-Sep-15 00:01N 29°44' W 095°10'0 0.0
2017-Sep-14 19:12N 29°44' W 095°10'0 0.0
2017-Sep-14 18:51N 29°44' W 095°10'0 0.0
2017-Sep-14 18:27N 29°44' W 095°10'0 0.0
2017-Sep-14 17:59N 29°44' W 095°10'0 0.0
2017-Sep-14 17:30N 29°44' W 095°10'0 0.0
2017-Sep-14 17:00N 29°44' W 095°10'0 0.0
2017-Sep-14 16:30N 29°44' W 095°10'  

Dump ship's entire track history